Time;durP1;ratioP1;P1;durP2;ratioP2;P2;SDS_P1;SDS_P2;PMS_P1;PMS_P2;Temp;Humidity;BMP_temperature;BMP_pressure;BME280_temperature;BME280_humidity;BME280_pressure;Samples;Min_cycle;Max_cycle;Signal;HPM_P1;HPM_P2
2023/08/28 00:02:21;;;;;;;2.30;1.73;;;;;;;;;;5083558;28;41577;-67
2023/08/28 00:04:49;;;;;;;2.47;1.95;;;;;;;;;;5086727;28;43227;-67
2023/08/28 00:07:17;;;;;;;1.60;1.20;;;;;;;;;;5086958;28;41396;-67
2023/08/28 00:09:45;;;;;;;2.20;1.00;;;;;;;;;;5086689;28;41668;-69
2023/08/28 00:12:13;;;;;;;2.13;1.95;;;;;;;;;;5087894;28;39877;-68
2023/08/28 00:14:41;;;;;;;1.25;1.15;;;;;;;;;;5086871;28;41437;-68
2023/08/28 00:17:09;;;;;;;1.95;1.08;;;;;;;;;;5087287;28;41141;-68
2023/08/28 00:19:38;;;;;;;2.75;1.50;;;;;;;;;;5086727;28;40084;-68
2023/08/28 00:22:06;;;;;;;1.50;1.15;;;;;;;;;;5086575;28;41652;-68
2023/08/28 00:24:34;;;;;;;2.10;1.38;;;;;;;;;;5085509;28;41616;-68
2023/08/28 00:27:02;;;;;;;1.77;1.63;;;;;;;;;;5078768;28;41433;-68
2023/08/28 00:29:30;;;;;;;1.67;0.98;;;;;;;;;;5081215;28;42058;-68
2023/08/28 00:31:58;;;;;;;1.25;1.15;;;;;;;;;;5115824;27;38918;-68
2023/08/28 00:34:26;;;;;;;1.92;1.45;;;;;;;;;;5085250;28;40632;-68
2023/08/28 00:36:56;;;;;;;1.75;1.65;;;;;;;;;;5084808;28;40652;-68
2023/08/28 00:39:24;;;;;;;1.88;1.20;;;;;;;;;;5084611;28;38928;-68
2023/08/28 00:41:52;;;;;;;1.95;1.00;;;;;;;;;;5072411;28;40196;-68
2023/08/28 00:44:20;;;;;;;3.15;1.15;;;;;;;;;;5084737;28;40870;-68
2023/08/28 00:46:49;;;;;;;1.27;0.80;;;;;;;;;;5084839;28;40566;-68
2023/08/28 00:49:16;;;;;;;1.27;1.15;;;;;;;;;;5070401;28;40559;-68
2023/08/28 00:51:44;;;;;;;1.30;1.20;;;;;;;;;;5086516;28;40284;-68
2023/08/28 00:54:15;;;;;;;1.00;0.90;;;;;;;;;;5089763;28;42472;-68
2023/08/28 00:56:43;;;;;;;2.80;1.15;;;;;;;;;;5087916;28;42305;-68
2023/08/28 00:59:13;;;;;;;1.83;1.20;;;;;;;;;;5089068;28;40561;-68
2023/08/28 01:01:41;;;;;;;1.30;1.20;;;;;;;;;;5090570;28;41341;-68
2023/08/28 01:04:09;;;;;;;1.50;1.40;;;;;;;;;;5088308;28;41876;-68
2023/08/28 01:06:42;;;;;;;1.73;1.63;;;;;;;;;;5089001;28;39077;-68
2023/08/28 01:09:13;;;;;;;1.77;1.10;;;;;;;;;;5087905;28;42515;-68
2023/08/28 01:11:45;;;;;;;1.17;1.08;;;;;;;;;;5088663;28;40499;-68
2023/08/28 01:14:16;;;;;;;1.98;1.73;;;;;;;;;;5089507;28;39796;-68
2023/08/28 01:16:44;;;;;;;1.20;0.90;;;;;;;;;;5088559;28;40606;-68
2023/08/28 01:19:14;;;;;;;1.50;1.20;;;;;;;;;;5087996;28;39038;-68
2023/08/28 01:21:42;;;;;;;3.08;1.92;;;;;;;;;;5089788;28;42692;-68
2023/08/28 01:24:10;;;;;;;1.00;0.93;;;;;;;;;;5090732;28;42905;-68
2023/08/28 01:26:40;;;;;;;1.65;1.10;;;;;;;;;;5089376;28;40285;-68
2023/08/28 01:29:08;;;;;;;1.25;1.15;;;;;;;;;;5100509;28;40137;-68
2023/08/28 01:31:36;;;;;;;1.48;1.13;;;;;;;;;;5087569;28;40571;-68
2023/08/28 01:34:04;;;;;;;1.25;1.15;;;;;;;;;;5090500;28;40933;-68
2023/08/28 01:36:33;;;;;;;1.70;1.60;;;;;;;;;;5088639;28;42036;-68
2023/08/28 01:39:04;;;;;;;0.80;0.80;;;;;;;;;;5089275;28;40202;-68
2023/08/28 01:41:32;;;;;;;1.33;1.13;;;;;;;;;;5088118;28;40220;-68
2023/08/28 01:44:02;;;;;;;1.08;0.95;;;;;;;;;;5088477;28;40530;-68
2023/08/28 01:46:33;;;;;;;1.45;0.90;;;;;;;;;;5088381;28;40157;-68
2023/08/28 01:49:03;;;;;;;2.67;1.42;;;;;;;;;;5087509;28;40360;-68
2023/08/28 01:51:31;;;;;;;0.90;0.90;;;;;;;;;;5087189;28;40741;-68
2023/08/28 01:53:59;;;;;;;1.40;1.30;;;;;;;;;;5102854;28;39640;-68
2023/08/28 01:56:27;;;;;;;0.70;0.70;;;;;;;;;;5081677;28;40953;-68
2023/08/28 01:58:55;;;;;;;1.42;1.33;;;;;;;;;;5087168;28;39019;-68
2023/08/28 02:01:25;;;;;;;1.88;1.13;;;;;;;;;;5087047;28;40256;-68
2023/08/28 02:03:54;;;;;;;1.23;1.02;;;;;;;;;;5086573;28;42168;-67
2023/08/28 02:06:23;;;;;;;0.95;0.85;;;;;;;;;;5086816;28;40168;-68
2023/08/28 02:08:52;;;;;;;1.35;1.00;;;;;;;;;;5088898;28;42838;-68
2023/08/28 02:11:20;;;;;;;1.30;1.20;;;;;;;;;;5090142;28;41712;-68
2023/08/28 02:13:48;;;;;;;2.65;0.73;;;;;;;;;;5089429;28;40585;-68
2023/08/28 02:16:16;;;;;;;1.40;1.20;;;;;;;;;;5087420;28;42578;-68
2023/08/28 02:18:45;;;;;;;1.10;1.00;;;;;;;;;;5087495;28;40184;-68
2023/08/28 02:21:13;;;;;;;1.67;0.95;;;;;;;;;;5086730;28;41152;-68
2023/08/28 02:23:42;;;;;;;0.60;0.60;;;;;;;;;;5088828;28;41999;-68
2023/08/28 02:26:10;;;;;;;1.63;1.50;;;;;;;;;;5089336;28;40858;-67
2023/08/28 02:28:38;;;;;;;1.50;1.40;;;;;;;;;;5087980;28;41653;-68
2023/08/28 02:31:06;;;;;;;2.78;1.30;;;;;;;;;;5087491;28;40510;-68
2023/08/28 02:33:34;;;;;;;1.55;1.40;;;;;;;;;;5087452;28;39702;-67
2023/08/28 02:36:03;;;;;;;1.92;1.48;;;;;;;;;;5086935;28;40759;-68
2023/08/28 02:38:31;;;;;;;1.70;1.60;;;;;;;;;;5086776;28;41008;-68
2023/08/28 02:41:03;;;;;;;1.00;0.80;;;;;;;;;;5088217;28;40270;-68
2023/08/28 02:43:31;;;;;;;1.30;1.20;;;;;;;;;;5086700;28;40620;-68
2023/08/28 02:45:59;;;;;;;1.20;1.00;;;;;;;;;;5089433;28;39973;-68
2023/08/28 02:48:28;;;;;;;1.42;0.93;;;;;;;;;;5088583;28;41829;-68
2023/08/28 02:50:58;;;;;;;0.80;0.77;;;;;;;;;;5083345;28;40609;-68
2023/08/28 02:53:28;;;;;;;1.05;0.75;;;;;;;;;;5086951;28;38862;-68
2023/08/28 02:56:20;;;;;;;1.73;1.25;;;;;;;;;;5086514;28;41370;-68
2023/08/28 02:58:48;;;;;;;1.15;1.05;;;;;;;;;;5062680;28;42091;-68
2023/08/28 03:01:17;;;;;;;3.33;1.10;;;;;;;;;;5087913;28;40032;-68
2023/08/28 03:03:45;;;;;;;2.13;1.30;;;;;;;;;;5085855;28;40567;-68
2023/08/28 03:06:13;;;;;;;1.80;1.02;;;;;;;;;;5086536;28;40127;-68
2023/08/28 03:08:43;;;;;;;1.50;1.40;;;;;;;;;;5086625;28;40359;-68
2023/08/28 03:11:11;;;;;;;1.40;1.30;;;;;;;;;;5088172;28;43001;-68
2023/08/28 03:13:39;;;;;;;0.98;0.85;;;;;;;;;;5120288;27;38880;-68
2023/08/28 03:16:07;;;;;;;1.08;0.70;;;;;;;;;;5088559;28;41800;-68
2023/08/28 03:18:35;;;;;;;0.80;0.77;;;;;;;;;;5087235;28;42178;-68
2023/08/28 03:21:03;;;;;;;0.95;0.95;;;;;;;;;;5086584;28;39099;-68
2023/08/28 03:23:31;;;;;;;1.15;0.82;;;;;;;;;;5088883;28;41745;-68
2023/08/28 03:26:02;;;;;;;1.95;1.30;;;;;;;;;;5087889;28;41200;-68
2023/08/28 03:28:30;;;;;;;0.80;0.80;;;;;;;;;;5088391;28;41273;-68
2023/08/28 03:30:57;;;;;;;1.23;1.13;;;;;;;;;;5086898;28;41871;-68
2023/08/28 03:33:26;;;;;;;0.82;0.82;;;;;;;;;;5087068;28;41426;-67
2023/08/28 03:35:54;;;;;;;0.95;0.82;;;;;;;;;;5088461;28;41772;-68
2023/08/28 03:38:23;;;;;;;0.77;0.77;;;;;;;;;;5088502;27;42168;-68
2023/08/28 03:40:51;;;;;;;1.30;1.20;;;;;;;;;;5086836;28;38876;-68
2023/08/28 03:43:20;;;;;;;1.45;1.30;;;;;;;;;;5086149;28;40416;-68
2023/08/28 03:45:48;;;;;;;0.85;0.80;;;;;;;;;;5087467;28;41931;-68
2023/08/28 03:48:16;;;;;;;1.27;1.17;;;;;;;;;;5088135;28;41683;-68
2023/08/28 03:50:45;;;;;;;4.25;1.30;;;;;;;;;;5087854;28;41987;-68
2023/08/28 03:53:13;;;;;;;1.27;1.17;;;;;;;;;;5118442;27;38906;-68
2023/08/28 03:55:41;;;;;;;1.35;0.98;;;;;;;;;;5087367;28;41717;-68
2023/08/28 03:58:09;;;;;;;0.50;0.50;;;;;;;;;;5084656;28;43046;-67
2023/08/28 04:00:40;;;;;;;1.35;1.23;;;;;;;;;;5085228;28;38975;-68
2023/08/28 04:03:08;;;;;;;1.17;1.05;;;;;;;;;;5086111;28;40241;-69
2023/08/28 04:05:38;;;;;;;1.80;0.98;;;;;;;;;;5085609;28;41592;-68
2023/08/28 04:08:06;;;;;;;0.63;0.63;;;;;;;;;;5088026;28;40350;-68
2023/08/28 04:10:34;;;;;;;0.82;0.80;;;;;;;;;;5119739;27;40458;-68
2023/08/28 04:13:02;;;;;;;2.67;1.20;;;;;;;;;;5096564;28;39520;-68
2023/08/28 04:15:31;;;;;;;1.38;1.27;;;;;;;;;;5084616;28;40218;-68
2023/08/28 04:18:00;;;;;;;1.13;1.02;;;;;;;;;;5081398;28;42355;-68
2023/08/28 04:20:28;;;;;;;1.05;0.77;;;;;;;;;;5084337;28;40332;-68
2023/08/28 04:22:56;;;;;;;1.00;0.90;;;;;;;;;;5085477;28;40118;-68
2023/08/28 04:25:25;;;;;;;0.93;0.88;;;;;;;;;;5087120;28;41852;-68
2023/08/28 04:27:53;;;;;;;1.00;0.90;;;;;;;;;;5085171;28;40546;-68
2023/08/28 04:30:22;;;;;;;1.50;1.17;;;;;;;;;;5087462;28;42611;-68
2023/08/28 04:32:52;;;;;;;1.33;0.93;;;;;;;;;;5086196;28;38965;-68
2023/08/28 04:35:22;;;;;;;1.05;0.85;;;;;;;;;;5085963;28;42653;-68
2023/08/28 04:37:50;;;;;;;1.20;1.10;;;;;;;;;;5087198;28;42246;-68
2023/08/28 04:40:18;;;;;;;1.00;0.80;;;;;;;;;;5085338;28;38829;-68
2023/08/28 04:42:46;;;;;;;1.92;1.20;;;;;;;;;;5085208;28;40192;-68
2023/08/28 04:45:14;;;;;;;1.45;1.17;;;;;;;;;;5085476;28;40815;-68
2023/08/28 04:47:42;;;;;;;0.98;0.80;;;;;;;;;;5086897;28;41096;-68
2023/08/28 04:50:10;;;;;;;1.15;1.05;;;;;;;;;;5086030;28;41483;-68
2023/08/28 04:52:40;;;;;;;0.80;0.80;;;;;;;;;;5085615;28;31207;-68
2023/08/28 04:55:08;;;;;;;0.93;0.77;;;;;;;;;;5087153;28;41058;-68
2023/08/28 04:57:35;;;;;;;1.13;1.05;;;;;;;;;;5084069;28;41177;-68
2023/08/28 05:00:06;;;;;;;1.48;1.38;;;;;;;;;;5083499;28;41158;-68
2023/08/28 05:02:34;;;;;;;1.30;1.20;;;;;;;;;;5077819;28;40044;-68
2023/08/28 05:05:03;;;;;;;1.48;0.82;;;;;;;;;;5085033;28;41228;-68
2023/08/28 05:07:30;;;;;;;1.35;1.25;;;;;;;;;;5084812;28;37887;-68
2023/08/28 05:10:00;;;;;;;1.05;1.00;;;;;;;;;;5084534;28;40763;-69
2023/08/28 05:12:28;;;;;;;0.88;0.88;;;;;;;;;;5085472;28;40541;-68
2023/08/28 05:14:56;;;;;;;1.13;1.02;;;;;;;;;;5087473;28;41658;-69
2023/08/28 05:17:24;;;;;;;1.25;1.15;;;;;;;;;;5081452;28;41375;-68
2023/08/28 05:19:52;;;;;;;2.78;1.50;;;;;;;;;;5076894;28;40310;-68
2023/08/28 05:22:20;;;;;;;1.98;1.10;;;;;;;;;;5084832;28;40050;-68
2023/08/28 05:24:48;;;;;;;1.63;0.93;;;;;;;;;;5086146;28;42226;-68
2023/08/28 05:27:18;;;;;;;5.43;2.20;;;;;;;;;;5086015;28;40230;-68
2023/08/28 05:29:46;;;;;;;5.82;5.32;;;;;;;;;;5085161;28;40275;-68
2023/08/28 05:32:14;;;;;;;8.02;6.50;;;;;;;;;;5084548;28;41994;-68
2023/08/28 05:34:42;;;;;;;7.32;6.35;;;;;;;;;;5084758;28;39775;-68
2023/08/28 05:37:10;;;;;;;6.70;5.63;;;;;;;;;;5084739;28;40623;-68
2023/08/28 05:39:38;;;;;;;5.57;4.63;;;;;;;;;;5085843;28;40344;-68
2023/08/28 05:42:06;;;;;;;9.80;4.07;;;;;;;;;;5088792;28;41017;-68
2023/08/28 05:44:36;;;;;;;6.53;4.20;;;;;;;;;;5087299;28;40586;-69
2023/08/28 05:47:04;;;;;;;9.60;3.78;;;;;;;;;;5077114;28;38878;-69
2023/08/28 05:49:34;;;;;;;8.25;3.63;;;;;;;;;;5086778;28;42622;-68
2023/08/28 05:52:03;;;;;;;7.43;3.70;;;;;;;;;;5087716;28;42201;-68
2023/08/28 05:54:31;;;;;;;5.75;3.40;;;;;;;;;;5089265;28;40244;-68
2023/08/28 05:56:59;;;;;;;8.57;3.20;;;;;;;;;;5088347;28;39637;-69
2023/08/28 05:59:27;;;;;;;3.75;3.10;;;;;;;;;;5086903;28;40587;-69
2023/08/28 06:01:57;;;;;;;9.52;2.97;;;;;;;;;;5088253;28;41356;-68
2023/08/28 06:04:25;;;;;;;5.47;3.50;;;;;;;;;;5087268;28;40488;-68
2023/08/28 06:06:53;;;;;;;18.42;3.25;;;;;;;;;;5087845;28;39048;-68
2023/08/28 06:09:22;;;;;;;13.75;2.47;;;;;;;;;;5088300;28;41334;-69
2023/08/28 06:11:49;;;;;;;12.63;3.10;;;;;;;;;;5089857;28;42264;-69
2023/08/28 06:14:18;;;;;;;8.18;2.83;;;;;;;;;;5088725;28;41324;-69
2023/08/28 06:16:46;;;;;;;11.07;2.80;;;;;;;;;;5084042;28;39970;-68
2023/08/28 06:19:15;;;;;;;7.82;3.42;;;;;;;;;;5087706;28;40737;-68
2023/08/28 06:21:45;;;;;;;15.98;3.55;;;;;;;;;;5086125;28;39945;-69
2023/08/28 06:24:13;;;;;;;6.43;2.50;;;;;;;;;;5087214;28;42136;-69
2023/08/28 06:26:42;;;;;;;4.90;3.00;;;;;;;;;;5076237;28;42353;-69
2023/08/28 06:29:10;;;;;;;5.03;2.70;;;;;;;;;;5088613;28;41703;-69
2023/08/28 06:31:38;;;;;;;6.55;2.80;;;;;;;;;;5083278;28;41638;-68
2023/08/28 06:34:06;;;;;;;7.65;3.03;;;;;;;;;;5086248;28;40182;-68
2023/08/28 06:36:35;;;;;;;7.95;3.38;;;;;;;;;;5083569;28;41894;-69
2023/08/28 06:39:03;;;;;;;4.00;2.88;;;;;;;;;;5086750;28;42124;-68
2023/08/28 06:41:31;;;;;;;5.05;2.50;;;;;;;;;;5088241;28;40321;-67
2023/08/28 06:44:05;;;;;;;6.70;2.80;;;;;;;;;;5084489;28;40113;-67
2023/08/28 06:46:33;;;;;;;5.47;3.40;;;;;;;;;;5088221;28;40329;-68
2023/08/28 06:49:00;;;;;;;4.13;3.10;;;;;;;;;;5088218;28;41576;-68
2023/08/28 06:51:28;;;;;;;5.10;3.08;;;;;;;;;;5087608;28;42027;-68
2023/08/28 06:53:58;;;;;;;9.00;4.65;;;;;;;;;;5087376;28;38957;-68
2023/08/28 06:56:26;;;;;;;8.05;6.85;;;;;;;;;;5087515;28;42296;-68
2023/08/28 06:58:54;;;;;;;8.55;5.93;;;;;;;;;;5089439;28;41875;-68
2023/08/28 07:01:22;;;;;;;5.10;4.43;;;;;;;;;;5087537;28;40153;-68
2023/08/28 07:03:50;;;;;;;9.63;4.45;;;;;;;;;;5087807;28;43759;-69
2023/08/28 07:06:18;;;;;;;9.50;4.78;;;;;;;;;;5089135;28;40536;-69
2023/08/28 07:08:46;;;;;;;8.32;4.50;;;;;;;;;;5087692;28;41795;-69
2023/08/28 07:11:15;;;;;;;14.75;4.47;;;;;;;;;;5087260;28;42104;-68
2023/08/28 07:13:43;;;;;;;25.50;4.57;;;;;;;;;;5088953;28;40799;-70
2023/08/28 07:16:11;;;;;;;16.00;3.97;;;;;;;;;;5088257;28;42286;-68
2023/08/28 07:18:39;;;;;;;16.20;3.03;;;;;;;;;;5084946;28;42253;-68
2023/08/28 07:21:07;;;;;;;28.05;3.65;;;;;;;;;;5087038;28;39001;-69
2023/08/28 07:23:36;;;;;;;32.47;3.40;;;;;;;;;;5088131;28;41588;-68
2023/08/28 07:26:04;;;;;;;20.67;3.83;;;;;;;;;;5088712;28;40293;-68
2023/08/28 07:28:33;;;;;;;13.93;3.42;;;;;;;;;;5082721;28;41589;-68
2023/08/28 07:31:03;;;;;;;15.43;3.40;;;;;;;;;;5087632;28;43177;-68
2023/08/28 07:33:31;;;;;;;11.82;2.50;;;;;;;;;;5085352;28;40344;-70
2023/08/28 07:35:59;;;;;;;18.67;3.25;;;;;;;;;;5088700;28;40233;-68
2023/08/28 07:38:27;;;;;;;11.73;3.35;;;;;;;;;;5087466;28;41852;-69
2023/08/28 07:40:55;;;;;;;22.38;3.10;;;;;;;;;;5085456;28;41602;-71
2023/08/28 07:43:23;;;;;;;36.90;4.47;;;;;;;;;;5079599;28;42195;-71
2023/08/28 07:45:52;;;;;;;42.50;4.57;;;;;;;;;;5088006;28;42670;-70
2023/08/28 07:48:20;;;;;;;40.08;4.38;;;;;;;;;;5088502;28;42236;-70
2023/08/28 07:50:49;;;;;;;27.70;5.10;;;;;;;;;;5088374;28;41863;-71
2023/08/28 07:53:17;;;;;;;18.38;4.90;;;;;;;;;;5086950;28;40302;-70
2023/08/28 07:55:44;;;;;;;15.07;5.32;;;;;;;;;;5088738;28;41439;-71
2023/08/28 07:58:13;;;;;;;13.80;6.05;;;;;;;;;;5087932;28;43192;-71
2023/08/28 08:00:42;;;;;;;7.72;6.45;;;;;;;;;;5087837;28;40537;-71
2023/08/28 08:03:11;;;;;;;9.32;6.15;;;;;;;;;;5086460;28;42234;-71
2023/08/28 08:05:40;;;;;;;8.52;5.88;;;;;;;;;;5086872;28;43097;-72
2023/08/28 08:08:08;;;;;;;13.43;5.72;;;;;;;;;;5088828;28;40495;-72
2023/08/28 08:10:37;;;;;;;12.48;6.22;;;;;;;;;;5087966;28;41814;-72
2023/08/28 08:13:05;;;;;;;9.05;6.07;;;;;;;;;;5080873;28;40545;-71
2023/08/28 08:15:33;;;;;;;17.48;5.43;;;;;;;;;;5088030;28;41608;-71
2023/08/28 08:18:01;;;;;;;6.40;5.80;;;;;;;;;;5085683;28;42121;-71
2023/08/28 08:20:31;;;;;;;9.63;5.65;;;;;;;;;;5074100;28;40430;-71
2023/08/28 08:23:01;;;;;;;12.02;4.82;;;;;;;;;;5088163;28;20685;-72
2023/08/28 08:25:30;;;;;;;5.97;4.25;;;;;;;;;;5084581;28;42056;-69
2023/08/28 08:27:58;;;;;;;6.55;4.40;;;;;;;;;;5086522;28;39877;-72
2023/08/28 08:30:26;;;;;;;7.05;3.90;;;;;;;;;;5086170;28;42034;-72
2023/08/28 08:32:54;;;;;;;5.28;3.75;;;;;;;;;;5087710;28;40561;-71
2023/08/28 08:35:22;;;;;;;7.47;3.88;;;;;;;;;;5086706;28;42732;-72
2023/08/28 08:37:53;;;;;;;4.07;3.35;;;;;;;;;;5087326;28;42826;-72
2023/08/28 08:40:24;;;;;;;7.43;3.70;;;;;;;;;;5087460;28;39628;-71
2023/08/28 08:42:52;;;;;;;5.20;3.67;;;;;;;;;;5087527;28;41989;-72
2023/08/28 08:45:21;;;;;;;5.65;3.67;;;;;;;;;;5086196;28;42292;-72
2023/08/28 08:47:49;;;;;;;5.20;3.10;;;;;;;;;;5087365;28;41395;-71
2023/08/28 08:50:17;;;;;;;5.78;3.83;;;;;;;;;;5083557;28;41815;-72
2023/08/28 08:52:45;;;;;;;4.47;3.08;;;;;;;;;;5087058;28;42026;-71
2023/08/28 08:55:16;;;;;;;7.13;2.92;;;;;;;;;;5086956;28;41653;-69
2023/08/28 08:57:44;;;;;;;4.35;3.50;;;;;;;;;;5082654;28;42036;-72
2023/08/28 09:00:13;;;;;;;6.45;3.78;;;;;;;;;;5088067;28;40584;-71
2023/08/28 09:02:45;;;;;;;5.63;3.58;;;;;;;;;;5086992;28;42297;-71
2023/08/28 09:05:14;;;;;;;4.63;2.50;;;;;;;;;;5087359;28;41591;-71
2023/08/28 09:07:43;;;;;;;5.50;2.05;;;;;;;;;;5086061;28;40320;-72
2023/08/28 09:10:14;;;;;;;4.78;2.13;;;;;;;;;;5083478;28;41591;-70
2023/08/28 09:12:46;;;;;;;3.83;1.90;;;;;;;;;;5074701;28;42141;-69
2023/08/28 09:15:14;;;;;;;4.20;2.00;;;;;;;;;;5086762;28;41639;-69
2023/08/28 09:17:42;;;;;;;1.90;1.77;;;;;;;;;;5090137;28;42689;-70
2023/08/28 09:20:14;;;;;;;5.63;1.83;;;;;;;;;;5090454;28;41667;-69
2023/08/28 09:22:46;;;;;;;3.22;1.75;;;;;;;;;;5090189;28;42556;-72
2023/08/28 09:25:21;;;;;;;2.85;1.30;;;;;;;;;;5087530;28;43114;-71
2023/08/28 09:27:50;;;;;;;2.45;1.15;;;;;;;;;;5081540;28;40271;-72
2023/08/28 09:30:29;;;;;;;5.47;1.45;;;;;;;;;;5090161;28;41294;-73
2023/08/28 09:32:57;;;;;;;2.22;0.90;;;;;;;;;;5085737;28;41774;-70
2023/08/28 09:35:26;;;;;;;6.45;1.50;;;;;;;;;;5073838;28;40185;-70
2023/08/28 09:37:57;;;;;;;13.15;1.42;;;;;;;;;;5078819;28;43093;-71
2023/08/28 09:40:28;;;;;;;10.43;1.30;;;;;;;;;;5087955;28;39801;-71
2023/08/28 09:42:57;;;;;;;12.00;1.02;;;;;;;;;;5087098;28;41461;-71
2023/08/28 09:45:29;;;;;;;16.15;1.30;;;;;;;;;;5086750;28;42118;-72
2023/08/28 09:47:57;;;;;;;8.43;1.27;;;;;;;;;;5084552;28;40626;-71
2023/08/28 09:50:26;;;;;;;10.90;1.15;;;;;;;;;;5086899;28;42616;-71
2023/08/28 09:52:54;;;;;;;5.00;1.05;;;;;;;;;;5085981;28;42604;-72
2023/08/28 09:55:22;;;;;;;4.03;0.88;;;;;;;;;;5085688;28;40467;-71
2023/08/28 09:57:50;;;;;;;5.25;0.80;;;;;;;;;;5080531;28;42505;-71
2023/08/28 10:00:20;;;;;;;3.90;0.70;;;;;;;;;;5077931;28;38546;-73
2023/08/28 10:02:48;;;;;;;5.07;0.95;;;;;;;;;;5080926;28;41527;-72
2023/08/28 10:05:16;;;;;;;1.35;0.70;;;;;;;;;;5084526;28;42044;-72
2023/08/28 10:07:44;;;;;;;4.95;1.00;;;;;;;;;;5086303;28;39247;-72
2023/08/28 10:10:14;;;;;;;2.53;0.82;;;;;;;;;;5087973;28;41343;-72
2023/08/28 10:12:42;;;;;;;2.83;0.90;;;;;;;;;;5085261;28;42094;-72
2023/08/28 10:15:11;;;;;;;2.75;0.70;;;;;;;;;;5084238;28;40032;-73
2023/08/28 10:17:40;;;;;;;1.77;0.82;;;;;;;;;;5084246;28;41352;-72
2023/08/28 10:20:09;;;;;;;4.45;0.93;;;;;;;;;;5086427;28;42140;-72
2023/08/28 10:22:37;;;;;;;4.43;0.90;;;;;;;;;;5085696;28;41419;-71
2023/08/28 10:25:05;;;;;;;1.42;0.80;;;;;;;;;;5087370;28;41780;-73
2023/08/28 10:27:33;;;;;;;2.55;0.60;;;;;;;;;;5084384;28;41386;-70
2023/08/28 10:30:01;;;;;;;1.55;0.85;;;;;;;;;;5085098;28;41512;-71
2023/08/28 10:32:29;;;;;;;1.52;0.70;;;;;;;;;;5085692;28;43135;-70
2023/08/28 10:34:59;;;;;;;2.42;0.50;;;;;;;;;;5086140;28;41069;-71
2023/08/28 10:37:27;;;;;;;4.00;0.70;;;;;;;;;;5085403;28;41524;-71
2023/08/28 10:39:57;;;;;;;3.53;1.23;;;;;;;;;;5085370;28;42852;-71
2023/08/28 10:42:26;;;;;;;1.35;0.70;;;;;;;;;;5079850;28;40193;-71
2023/08/28 10:44:55;;;;;;;2.55;0.80;;;;;;;;;;5086333;28;41720;-70
2023/08/28 10:47:24;;;;;;;0.85;0.60;;;;;;;;;;5084571;28;40027;-71
2023/08/28 10:49:53;;;;;;;1.52;0.75;;;;;;;;;;5084299;28;42655;-71
2023/08/28 10:52:23;;;;;;;4.28;0.80;;;;;;;;;;5084977;28;42138;-71
2023/08/28 10:54:51;;;;;;;1.23;0.70;;;;;;;;;;5084199;28;40378;-71
2023/08/28 10:57:22;;;;;;;2.15;0.70;;;;;;;;;;5084539;28;41614;-71
2023/08/28 10:59:51;;;;;;;3.70;0.60;;;;;;;;;;5083299;28;40488;-72
2023/08/28 11:02:19;;;;;;;1.27;0.65;;;;;;;;;;5085051;28;39719;-73
2023/08/28 11:04:47;;;;;;;3.35;0.70;;;;;;;;;;5083445;28;41437;-73
2023/08/28 11:07:30;;;;;;;4.10;0.75;;;;;;;;;;5086298;28;39486;-73
2023/08/28 11:10:13;;;;;;;4.82;1.00;;;;;;;;;;5082215;28;41189;-73
2023/08/28 11:12:53;;;;;;;6.07;0.80;;;;;;;;;;5081136;28;42986;-74
2023/08/28 11:15:31;;;;;;;5.57;1.00;;;;;;;;;;5084732;28;41387;-73
2023/08/28 11:18:18;;;;;;;3.45;1.02;;;;;;;;;;5086959;28;41858;-72
2023/08/28 11:20:46;;;;;;;11.25;1.90;;;;;;;;;;5082455;28;43062;-71
2023/08/28 11:23:19;;;;;;;8.95;1.08;;;;;;;;;;5084995;28;41005;-72
2023/08/28 11:25:47;;;;;;;16.50;2.63;;;;;;;;;;5084333;28;41808;-73
2023/08/28 11:28:25;;;;;;;2.05;0.90;;;;;;;;;;5085354;28;40416;-74
2023/08/28 11:30:53;;;;;;;8.43;1.33;;;;;;;;;;5081387;28;41344;-72
2023/08/28 11:33:21;;;;;;;26.38;1.75;;;;;;;;;;5085565;28;41917;-73
2023/08/28 11:35:49;;;;;;;30.17;2.22;;;;;;;;;;5084506;28;41120;-75
2023/08/28 11:38:17;;;;;;;10.38;1.48;;;;;;;;;;5083009;28;41499;-75
2023/08/28 11:40:45;;;;;;;5.70;1.10;;;;;;;;;;5084780;28;42219;-74
2023/08/28 11:43:14;;;;;;;11.10;1.27;;;;;;;;;;5084719;28;40284;-74
2023/08/28 11:45:44;;;;;;;11.82;1.05;;;;;;;;;;5079022;28;41979;-71
2023/08/28 11:48:12;;;;;;;6.25;0.90;;;;;;;;;;5085041;28;42722;-71
2023/08/28 11:50:40;;;;;;;5.50;0.98;;;;;;;;;;5083504;28;41638;-71
2023/08/28 11:53:07;;;;;;;3.67;0.90;;;;;;;;;;5084742;28;42964;-71
2023/08/28 11:55:35;;;;;;;6.55;1.27;;;;;;;;;;5083165;28;39207;-70
2023/08/28 11:58:05;;;;;;;5.95;0.88;;;;;;;;;;5084087;28;41790;-71
2023/08/28 12:00:33;;;;;;;8.52;1.20;;;;;;;;;;5083329;28;43207;-70
2023/08/28 12:03:06;;;;;;;48.22;2.35;;;;;;;;;;5084354;28;41013;-71
2023/08/28 12:05:35;;;;;;;52.40;3.40;;;;;;;;;;5081522;28;42266;-72
2023/08/28 12:08:03;;;;;;;19.20;1.70;;;;;;;;;;5081484;28;41550;-71
2023/08/28 12:10:32;;;;;;;14.15;1.42;;;;;;;;;;5083354;28;41284;-71
2023/08/28 12:13:00;;;;;;;28.17;2.20;;;;;;;;;;5083687;28;42002;-71
2023/08/28 12:15:32;;;;;;;7.05;1.35;;;;;;;;;;5079178;28;40881;-71
2023/08/28 12:18:01;;;;;;;8.32;1.35;;;;;;;;;;5083140;28;41348;-70
2023/08/28 12:20:32;;;;;;;18.20;1.27;;;;;;;;;;5082792;28;41684;-70
2023/08/28 12:23:00;;;;;;;10.18;1.23;;;;;;;;;;5081040;28;40644;-71
2023/08/28 12:25:30;;;;;;;5.13;1.05;;;;;;;;;;5084579;28;42686;-71
2023/08/28 12:28:03;;;;;;;4.70;1.10;;;;;;;;;;5082060;28;41041;-70
2023/08/28 12:30:31;;;;;;;3.78;0.80;;;;;;;;;;5080400;28;40231;-70
2023/08/28 12:32:59;;;;;;;6.47;1.00;;;;;;;;;;5083574;28;41255;-73
2023/08/28 12:35:27;;;;;;;5.65;0.82;;;;;;;;;;5084274;28;40035;-72
2023/08/28 12:37:56;;;;;;;2.50;0.90;;;;;;;;;;5084493;28;41605;-73
2023/08/28 12:40:24;;;;;;;1.92;0.82;;;;;;;;;;5083802;28;42121;-73
2023/08/28 12:42:55;;;;;;;3.35;0.82;;;;;;;;;;5084524;28;40690;-73
2023/08/28 12:45:23;;;;;;;3.42;1.00;;;;;;;;;;5085413;28;41247;-71
2023/08/28 12:47:52;;;;;;;5.00;1.00;;;;;;;;;;5084167;28;43108;-72
2023/08/28 12:50:20;;;;;;;3.70;0.60;;;;;;;;;;5086075;28;40986;-73
2023/08/28 12:52:51;;;;;;;11.20;1.08;;;;;;;;;;5085058;28;41442;-74
2023/08/28 12:55:20;;;;;;;4.45;1.15;;;;;;;;;;5087614;28;43149;-73
2023/08/28 12:57:48;;;;;;;2.15;1.17;;;;;;;;;;5087205;28;41276;-73
2023/08/28 13:00:16;;;;;;;4.03;0.90;;;;;;;;;;5089754;28;41430;-72
2023/08/28 13:02:45;;;;;;;1.35;0.70;;;;;;;;;;5086172;28;40125;-74
2023/08/28 13:05:13;;;;;;;2.53;0.82;;;;;;;;;;5090204;28;41537;-75
2023/08/28 13:07:41;;;;;;;1.35;0.70;;;;;;;;;;5087065;28;41700;-73
2023/08/28 13:10:09;;;;;;;2.42;0.60;;;;;;;;;;5086950;28;41103;-73
2023/08/28 13:12:38;;;;;;;10.57;2.00;;;;;;;;;;5082898;28;41712;-73
2023/08/28 13:15:07;;;;;;;9.05;0.95;;;;;;;;;;5087187;28;42343;-73
2023/08/28 13:17:43;;;;;;;17.88;1.40;;;;;;;;;;5085364;28;40768;-72
2023/08/28 13:20:12;;;;;;;12.80;1.35;;;;;;;;;;5088797;28;43104;-73
2023/08/28 13:22:40;;;;;;;5.45;0.93;;;;;;;;;;5084631;28;40388;-75
2023/08/28 13:25:08;;;;;;;4.10;0.73;;;;;;;;;;5074557;28;40088;-72
2023/08/28 13:27:36;;;;;;;2.90;0.70;;;;;;;;;;5085801;28;41788;-72
2023/08/28 13:30:07;;;;;;;2.30;0.50;;;;;;;;;;5086625;28;42308;-71
2023/08/28 13:32:35;;;;;;;1.08;0.60;;;;;;;;;;5086901;28;41414;-72
2023/08/28 13:35:04;;;;;;;8.43;1.30;;;;;;;;;;5088307;28;41901;-71
2023/08/28 13:37:32;;;;;;;1.08;0.55;;;;;;;;;;5087044;28;41116;-71
2023/08/28 13:40:00;;;;;;;3.22;0.60;;;;;;;;;;5085152;28;42830;-73
2023/08/28 13:42:28;;;;;;;2.53;1.05;;;;;;;;;;5084691;28;40623;-74
2023/08/28 13:44:56;;;;;;;1.67;0.60;;;;;;;;;;5084003;28;41698;-73
2023/08/28 13:47:25;;;;;;;2.60;0.90;;;;;;;;;;5080914;28;42410;-73
2023/08/28 13:49:54;;;;;;;1.27;0.70;;;;;;;;;;5085065;28;39980;-71
2023/08/28 13:52:22;;;;;;;2.35;0.75;;;;;;;;;;5081172;28;41157;-72
2023/08/28 13:54:50;;;;;;;1.80;0.75;;;;;;;;;;5082796;28;41887;-71
2023/08/28 13:57:17;;;;;;;1.60;0.63;;;;;;;;;;5082023;28;40373;-71
2023/08/28 13:59:45;;;;;;;1.88;0.90;;;;;;;;;;5084287;28;42782;-72
2023/08/28 14:02:13;;;;;;;1.23;0.70;;;;;;;;;;5080645;28;41405;-72
2023/08/28 14:04:43;;;;;;;4.32;0.65;;;;;;;;;;5079894;28;41488;-72
2023/08/28 14:07:11;;;;;;;2.28;0.70;;;;;;;;;;5080174;28;42030;-72
2023/08/28 14:09:39;;;;;;;2.97;0.85;;;;;;;;;;5081377;28;40320;-72
2023/08/28 14:12:07;;;;;;;1.30;0.50;;;;;;;;;;5080629;28;41582;-71
2023/08/28 14:14:35;;;;;;;6.50;0.77;;;;;;;;;;5079572;28;43543;-70
2023/08/28 14:17:04;;;;;;;0.98;0.50;;;;;;;;;;5082816;28;39053;-70
2023/08/28 14:19:31;;;;;;;1.70;0.60;;;;;;;;;;5080640;28;42104;-70
2023/08/28 14:22:01;;;;;;;1.40;0.68;;;;;;;;;;5079657;28;43293;-71
2023/08/28 14:24:29;;;;;;;4.45;0.95;;;;;;;;;;5080914;28;41649;-70
2023/08/28 14:26:57;;;;;;;4.32;0.85;;;;;;;;;;5082493;28;42275;-69
2023/08/28 14:29:25;;;;;;;37.25;2.95;;;;;;;;;;5081530;28;39952;-69
2023/08/28 14:31:53;;;;;;;55.53;3.42;;;;;;;;;;5082624;28;41198;-71
2023/08/28 14:34:21;;;;;;;20.70;1.20;;;;;;;;;;5081338;28;42213;-70
2023/08/28 14:36:49;;;;;;;5.70;0.88;;;;;;;;;;5083721;28;41311;-70
2023/08/28 14:39:19;;;;;;;7.10;0.70;;;;;;;;;;5086739;28;42611;-70
2023/08/28 14:41:46;;;;;;;5.30;0.80;;;;;;;;;;5086708;28;41621;-70
2023/08/28 14:44:14;;;;;;;1.90;0.80;;;;;;;;;;5088263;28;41208;-70
2023/08/28 14:46:42;;;;;;;5.22;0.80;;;;;;;;;;5085856;28;41616;-70
2023/08/28 14:49:10;;;;;;;2.83;0.68;;;;;;;;;;5086824;28;40046;-70
2023/08/28 14:51:38;;;;;;;3.63;0.68;;;;;;;;;;5086687;28;42477;-71